sensor_id;sensor_type;location;lat;lon;timestamp;temperature;humidity
2945;DHT22;1482;51.398;7.128;2022-12-18T00:01:24;-1.10;1.00
2945;DHT22;1482;51.398;7.128;2022-12-18T00:03:50;-1.10;1.00
2945;DHT22;1482;51.398;7.128;2022-12-18T00:06:16;-1.20;1.00
2945;DHT22;1482;51.398;7.128;2022-12-18T00:08:43;-1.10;1.00
2945;DHT22;1482;51.398;7.128;2022-12-18T00:11:12;-1.10;1.00
2945;DHT22;1482;51.398;7.128;2022-12-18T00:13:38;-1.20;1.00
2945;DHT22;1482;51.398;7.128;2022-12-18T00:16:05;-1.10;1.00
2945;DHT22;1482;51.398;7.128;2022-12-18T00:18:32;-1.10;1.00
2945;DHT22;1482;51.398;7.128;2022-12-18T00:21:06;-1.10;1.00
2945;DHT22;1482;51.398;7.128;2022-12-18T00:23:33;-1.10;1.00
2945;DHT22;1482;51.398;7.128;2022-12-18T00:26:03;-1.10;1.00
2945;DHT22;1482;51.398;7.128;2022-12-18T00:28:29;-1.20;1.00
2945;DHT22;1482;51.398;7.128;2022-12-18T00:33:26;-1.20;1.00
2945;DHT22;1482;51.398;7.128;2022-12-18T00:35:52;-1.40;1.00
2945;DHT22;1482;51.398;7.128;2022-12-18T00:38:17;-1.40;1.00
2945;DHT22;1482;51.398;7.128;2022-12-18T00:40:43;-1.50;1.00
2945;DHT22;1482;51.398;7.128;2022-12-18T00:43:09;-1.40;1.00
2945;DHT22;1482;51.398;7.128;2022-12-18T00:45:34;-1.30;1.00
2945;DHT22;1482;51.398;7.128;2022-12-18T00:48:00;-1.50;1.00
2945;DHT22;1482;51.398;7.128;2022-12-18T00:50:25;-1.30;1.00
2945;DHT22;1482;51.398;7.128;2022-12-18T00:52:52;-1.30;1.00
2945;DHT22;1482;51.398;7.128;2022-12-18T00:55:17;-1.30;1.00
2945;DHT22;1482;51.398;7.128;2022-12-18T00:57:43;-1.40;1.00
2945;DHT22;1482;51.398;7.128;2022-12-18T01:00:11;-1.50;1.00
2945;DHT22;1482;51.398;7.128;2022-12-18T01:02:37;-1.40;1.00
2945;DHT22;1482;51.398;7.128;2022-12-18T01:05:03;-1.40;1.00
2945;DHT22;1482;51.398;7.128;2022-12-18T01:07:29;-1.40;1.00
2945;DHT22;1482;51.398;7.128;2022-12-18T01:09:54;-1.40;1.00
2945;DHT22;1482;51.398;7.128;2022-12-18T01:12:20;-1.30;1.00
2945;DHT22;1482;51.398;7.128;2022-12-18T01:14:45;-1.30;1.00
2945;DHT22;1482;51.398;7.128;2022-12-18T01:17:11;-1.20;1.00
2945;DHT22;1482;51.398;7.128;2022-12-18T01:19:36;-1.30;1.00
2945;DHT22;1482;51.398;7.128;2022-12-18T01:22:02;-1.30;1.00
2945;DHT22;1482;51.398;7.128;2022-12-18T01:24:27;-1.20;1.00
2945;DHT22;1482;51.398;7.128;2022-12-18T01:26:53;-1.30;1.00
2945;DHT22;1482;51.398;7.128;2022-12-18T01:29:19;-1.20;1.00
2945;DHT22;1482;51.398;7.128;2022-12-18T01:31:44;-1.10;1.00
2945;DHT22;1482;51.398;7.128;2022-12-18T01:34:10;-1.10;1.00
2945;DHT22;1482;51.398;7.128;2022-12-18T01:36:37;-1.10;1.00
2945;DHT22;1482;51.398;7.128;2022-12-18T01:39:07;-1.00;1.00
2945;DHT22;1482;51.398;7.128;2022-12-18T01:41:34;-1.10;1.00
2945;DHT22;1482;51.398;7.128;2022-12-18T01:47:24;-1.10;1.00
2945;DHT22;1482;51.398;7.128;2022-12-18T01:49:51;-1.10;1.00
2945;DHT22;1482;51.398;7.128;2022-12-18T01:52:19;-1.20;1.00
2945;DHT22;1482;51.398;7.128;2022-12-18T01:54:45;-1.20;1.00
2945;DHT22;1482;51.398;7.128;2022-12-18T01:57:11;-1.10;1.00
2945;DHT22;1482;51.398;7.128;2022-12-18T01:59:38;-1.10;1.00
2945;DHT22;1482;51.398;7.128;2022-12-18T02:02:05;-1.10;1.00
2945;DHT22;1482;51.398;7.128;2022-12-18T02:04:31;-1.00;1.00
2945;DHT22;1482;51.398;7.128;2022-12-18T02:10:00;-1.10;1.00
2945;DHT22;1482;51.398;7.128;2022-12-18T02:13:19;-1.10;1.00
2945;DHT22;1482;51.398;7.128;2022-12-18T02:15:23;-1.10;1.00
2945;DHT22;1482;51.398;7.128;2022-12-18T02:17:54;-1.20;1.00
2945;DHT22;1482;51.398;7.128;2022-12-18T02:26:13;-1.10;1.00
2945;DHT22;1482;51.398;7.128;2022-12-18T02:28:54;-1.10;1.00
2945;DHT22;1482;51.398;7.128;2022-12-18T02:31:27;-1.10;1.00
2945;DHT22;1482;51.398;7.128;2022-12-18T02:33:56;-1.20;1.00
2945;DHT22;1482;51.398;7.128;2022-12-18T02:36:24;-1.20;1.00
2945;DHT22;1482;51.398;7.128;2022-12-18T02:38:52;-1.30;1.00
2945;DHT22;1482;51.398;7.128;2022-12-18T02:41:18;-1.30;1.00
2945;DHT22;1482;51.398;7.128;2022-12-18T02:43:49;-1.30;1.00
2945;DHT22;1482;51.398;7.128;2022-12-18T02:46:31;-1.30;1.00
2945;DHT22;1482;51.398;7.128;2022-12-18T02:52:05;-1.30;1.00
2945;DHT22;1482;51.398;7.128;2022-12-18T03:00:14;-1.20;1.00
2945;DHT22;1482;51.398;7.128;2022-12-18T03:02:55;-1.20;1.00
2945;DHT22;1482;51.398;7.128;2022-12-18T03:05:44;-1.20;1.00
2945;DHT22;1482;51.398;7.128;2022-12-18T03:08:19;-1.20;1.00
2945;DHT22;1482;51.398;7.128;2022-12-18T03:10:51;-1.10;1.00
2945;DHT22;1482;51.398;7.128;2022-12-18T03:13:27;-1.10;1.00
2945;DHT22;1482;51.398;7.128;2022-12-18T03:15:55;-1.10;1.00
2945;DHT22;1482;51.398;7.128;2022-12-18T03:18:25;-1.10;1.00
2945;DHT22;1482;51.398;7.128;2022-12-18T03:20:56;-1.10;1.00
2945;DHT22;1482;51.398;7.128;2022-12-18T03:23:27;-1.10;1.00
2945;DHT22;1482;51.398;7.128;2022-12-18T03:25:57;-1.10;1.00
2945;DHT22;1482;51.398;7.128;2022-12-18T03:28:24;-1.00;1.00
2945;DHT22;1482;51.398;7.128;2022-12-18T03:30:57;-1.00;1.00
2945;DHT22;1482;51.398;7.128;2022-12-18T03:33:39;-1.00;1.00
2945;DHT22;1482;51.398;7.128;2022-12-18T03:36:06;-1.10;1.00
2945;DHT22;1482;51.398;7.128;2022-12-18T03:38:32;-1.10;1.00
2945;DHT22;1482;51.398;7.128;2022-12-18T03:44:31;-1.00;1.00
2945;DHT22;1482;51.398;7.128;2022-12-18T03:52:28;-1.00;1.00
2945;DHT22;1482;51.398;7.128;2022-12-18T03:54:56;-1.10;1.00
2945;DHT22;1482;51.398;7.128;2022-12-18T03:57:26;-1.10;1.00
2945;DHT22;1482;51.398;7.128;2022-12-18T03:59:59;-1.00;1.00
2945;DHT22;1482;51.398;7.128;2022-12-18T04:02:26;-1.00;1.00
2945;DHT22;1482;51.398;7.128;2022-12-18T04:04:53;-1.00;1.00
2945;DHT22;1482;51.398;7.128;2022-12-18T04:07:20;-1.00;1.00
2945;DHT22;1482;51.398;7.128;2022-12-18T04:09:48;-1.00;1.00
2945;DHT22;1482;51.398;7.128;2022-12-18T04:12:14;-1.00;1.00
2945;DHT22;1482;51.398;7.128;2022-12-18T04:14:39;-1.00;1.00
2945;DHT22;1482;51.398;7.128;2022-12-18T04:17:05;-1.00;1.00
2945;DHT22;1482;51.398;7.128;2022-12-18T04:19:30;-1.00;1.00
2945;DHT22;1482;51.398;7.128;2022-12-18T04:21:56;-1.00;1.00
2945;DHT22;1482;51.398;7.128;2022-12-18T04:24:22;-0.90;1.00
2945;DHT22;1482;51.398;7.128;2022-12-18T04:26:47;-0.90;1.00
2945;DHT22;1482;51.398;7.128;2022-12-18T04:29:13;-0.90;1.00
2945;DHT22;1482;51.398;7.128;2022-12-18T04:31:38;-0.80;1.00
2945;DHT22;1482;51.398;7.128;2022-12-18T04:34:04;-0.90;1.00
2945;DHT22;1482;51.398;7.128;2022-12-18T04:36:29;-0.90;1.00
2945;DHT22;1482;51.398;7.128;2022-12-18T04:38:55;-0.90;1.00
2945;DHT22;1482;51.398;7.128;2022-12-18T04:41:21;-0.80;1.00
2945;DHT22;1482;51.398;7.128;2022-12-18T04:43:46;-0.80;1.00
2945;DHT22;1482;51.398;7.128;2022-12-18T04:46:12;-0.80;1.00
2945;DHT22;1482;51.398;7.128;2022-12-18T04:48:38;-0.90;1.00
2945;DHT22;1482;51.398;7.128;2022-12-18T04:51:04;-0.90;1.00
2945;DHT22;1482;51.398;7.128;2022-12-18T04:53:30;-0.90;1.00
2945;DHT22;1482;51.398;7.128;2022-12-18T04:56:11;-0.90;1.00
2945;DHT22;1482;51.398;7.128;2022-12-18T04:58:38;-0.90;1.00
2945;DHT22;1482;51.398;7.128;2022-12-18T05:01:05;-0.90;1.00
2945;DHT22;1482;51.398;7.128;2022-12-18T05:03:31;-0.80;1.00
2945;DHT22;1482;51.398;7.128;2022-12-18T05:05:56;-0.80;1.00
2945;DHT22;1482;51.398;7.128;2022-12-18T05:08:22;-0.90;1.00
2945;DHT22;1482;51.398;7.128;2022-12-18T05:10:48;-0.80;1.00
2945;DHT22;1482;51.398;7.128;2022-12-18T05:13:14;-0.80;1.00
2945;DHT22;1482;51.398;7.128;2022-12-18T05:15:39;-0.90;1.00
2945;DHT22;1482;51.398;7.128;2022-12-18T05:18:05;-0.90;1.00
2945;DHT22;1482;51.398;7.128;2022-12-18T05:20:30;-0.80;1.00
2945;DHT22;1482;51.398;7.128;2022-12-18T05:22:56;-0.90;1.00
2945;DHT22;1482;51.398;7.128;2022-12-18T05:25:22;-0.80;1.00
2945;DHT22;1482;51.398;7.128;2022-12-18T05:27:48;-0.70;1.00
2945;DHT22;1482;51.398;7.128;2022-12-18T05:30:14;-0.80;1.00
2945;DHT22;1482;51.398;7.128;2022-12-18T05:32:41;-0.80;1.00
2945;DHT22;1482;51.398;7.128;2022-12-18T05:35:08;-0.90;1.00
2945;DHT22;1482;51.398;7.128;2022-12-18T05:37:34;-0.80;1.00
2945;DHT22;1482;51.398;7.128;2022-12-18T05:40:00;-0.80;1.00
2945;DHT22;1482;51.398;7.128;2022-12-18T05:42:26;-0.80;1.00
2945;DHT22;1482;51.398;7.128;2022-12-18T05:44:51;-0.70;1.00
2945;DHT22;1482;51.398;7.128;2022-12-18T05:47:17;-0.70;1.00
2945;DHT22;1482;51.398;7.128;2022-12-18T05:49:42;-0.70;1.00
2945;DHT22;1482;51.398;7.128;2022-12-18T05:52:08;-0.70;1.00
2945;DHT22;1482;51.398;7.128;2022-12-18T05:54:34;-0.60;1.00
2945;DHT22;1482;51.398;7.128;2022-12-18T05:56:59;-0.60;1.00
2945;DHT22;1482;51.398;7.128;2022-12-18T05:59:25;-0.60;1.00
2945;DHT22;1482;51.398;7.128;2022-12-18T06:01:51;-0.60;1.00
2945;DHT22;1482;51.398;7.128;2022-12-18T06:04:16;-0.60;1.00
2945;DHT22;1482;51.398;7.128;2022-12-18T06:06:42;-0.50;1.00
2945;DHT22;1482;51.398;7.128;2022-12-18T06:09:07;-0.50;1.00
2945;DHT22;1482;51.398;7.128;2022-12-18T06:11:36;-0.40;1.00
2945;DHT22;1482;51.398;7.128;2022-12-18T06:14:03;-0.40;1.00
2945;DHT22;1482;51.398;7.128;2022-12-18T06:16:29;-0.40;1.00
2945;DHT22;1482;51.398;7.128;2022-12-18T06:19:03;-0.30;1.00
2945;DHT22;1482;51.398;7.128;2022-12-18T06:21:29;-0.40;1.00
2945;DHT22;1482;51.398;7.128;2022-12-18T06:23:55;-0.40;1.00
2945;DHT22;1482;51.398;7.128;2022-12-18T06:26:21;-0.40;1.00
2945;DHT22;1482;51.398;7.128;2022-12-18T06:28:46;-0.40;1.00
2945;DHT22;1482;51.398;7.128;2022-12-18T06:31:12;-0.50;1.00
2945;DHT22;1482;51.398;7.128;2022-12-18T06:33:38;-0.50;1.00
2945;DHT22;1482;51.398;7.128;2022-12-18T06:36:09;-0.40;1.00
2945;DHT22;1482;51.398;7.128;2022-12-18T06:38:37;-0.50;1.00
2945;DHT22;1482;51.398;7.128;2022-12-18T06:41:18;-0.50;1.00
2945;DHT22;1482;51.398;7.128;2022-12-18T06:43:44;-0.40;1.00
2945;DHT22;1482;51.398;7.128;2022-12-18T06:46:10;-0.40;1.00
2945;DHT22;1482;51.398;7.128;2022-12-18T06:48:36;-0.40;1.00
2945;DHT22;1482;51.398;7.128;2022-12-18T06:51:02;-0.30;1.00
2945;DHT22;1482;51.398;7.128;2022-12-18T06:53:28;-0.30;1.00
2945;DHT22;1482;51.398;7.128;2022-12-18T06:56:00;-0.30;1.00
2945;DHT22;1482;51.398;7.128;2022-12-18T06:58:27;-0.30;1.00
2945;DHT22;1482;51.398;7.128;2022-12-18T07:00:52;-0.30;1.00
2945;DHT22;1482;51.398;7.128;2022-12-18T07:03:18;-0.30;1.00
2945;DHT22;1482;51.398;7.128;2022-12-18T07:05:43;-0.30;1.00
2945;DHT22;1482;51.398;7.128;2022-12-18T07:08:09;-0.30;1.00
2945;DHT22;1482;51.398;7.128;2022-12-18T07:10:41;-0.30;1.00
2945;DHT22;1482;51.398;7.128;2022-12-18T07:13:07;-0.30;1.00
2945;DHT22;1482;51.398;7.128;2022-12-18T07:15:33;-0.20;1.00
2945;DHT22;1482;51.398;7.128;2022-12-18T07:17:58;-0.20;1.00
2945;DHT22;1482;51.398;7.128;2022-12-18T07:20:24;-0.10;1.00
2945;DHT22;1482;51.398;7.128;2022-12-18T07:22:49;-0.10;1.00
2945;DHT22;1482;51.398;7.128;2022-12-18T07:25:15;-0.10;1.00
2945;DHT22;1482;51.398;7.128;2022-12-18T07:27:40;0.00;1.00
2945;DHT22;1482;51.398;7.128;2022-12-18T07:30:06;0.00;1.00
2945;DHT22;1482;51.398;7.128;2022-12-18T07:32:32;0.00;1.00
2945;DHT22;1482;51.398;7.128;2022-12-18T07:34:58;0.00;1.00
2945;DHT22;1482;51.398;7.128;2022-12-18T07:37:23;-0.10;1.00
2945;DHT22;1482;51.398;7.128;2022-12-18T07:39:49;-0.10;1.00
2945;DHT22;1482;51.398;7.128;2022-12-18T07:42:14;0.00;1.00
2945;DHT22;1482;51.398;7.128;2022-12-18T07:44:59;0.00;1.00
2945;DHT22;1482;51.398;7.128;2022-12-18T07:47:25;0.00;1.00
2945;DHT22;1482;51.398;7.128;2022-12-18T07:49:51;0.10;1.00
2945;DHT22;1482;51.398;7.128;2022-12-18T07:52:17;0.10;1.00
2945;DHT22;1482;51.398;7.128;2022-12-18T07:54:42;0.20;1.00
2945;DHT22;1482;51.398;7.128;2022-12-18T07:57:08;0.30;1.00
2945;DHT22;1482;51.398;7.128;2022-12-18T07:59:34;0.30;1.00
2945;DHT22;1482;51.398;7.128;2022-12-18T08:01:59;0.40;1.00
2945;DHT22;1482;51.398;7.128;2022-12-18T08:04:25;0.50;1.00
2945;DHT22;1482;51.398;7.128;2022-12-18T08:06:51;0.60;1.00
2945;DHT22;1482;51.398;7.128;2022-12-18T08:09:16;0.60;1.00
2945;DHT22;1482;51.398;7.128;2022-12-18T08:11:42;0.70;1.00
2945;DHT22;1482;51.398;7.128;2022-12-18T08:14:08;0.90;1.00
2945;DHT22;1482;51.398;7.128;2022-12-18T08:16:34;0.90;1.00
2945;DHT22;1482;51.398;7.128;2022-12-18T08:18:59;1.00;1.00
2945;DHT22;1482;51.398;7.128;2022-12-18T08:21:28;1.10;1.00
2945;DHT22;1482;51.398;7.128;2022-12-18T08:23:55;1.20;1.00
2945;DHT22;1482;51.398;7.128;2022-12-18T08:26:22;1.20;1.00
2945;DHT22;1482;51.398;7.128;2022-12-18T08:28:49;1.40;1.00
2945;DHT22;1482;51.398;7.128;2022-12-18T08:31:15;1.70;1.00
2945;DHT22;1482;51.398;7.128;2022-12-18T08:33:41;2.60;1.00
2945;DHT22;1482;51.398;7.128;2022-12-18T08:36:08;3.60;1.00
2945;DHT22;1482;51.398;7.128;2022-12-18T08:38:34;4.80;1.00
2945;DHT22;1482;51.398;7.128;2022-12-18T08:41:06;5.60;1.00
2945;DHT22;1482;51.398;7.128;2022-12-18T08:43:32;6.90;1.00
2945;DHT22;1482;51.398;7.128;2022-12-18T08:46:18;7.70;1.00
2945;DHT22;1482;51.398;7.128;2022-12-18T08:48:44;8.50;1.00
2945;DHT22;1482;51.398;7.128;2022-12-18T08:51:10;9.50;1.00
2945;DHT22;1482;51.398;7.128;2022-12-18T08:53:36;9.10;1.00
2945;DHT22;1482;51.398;7.128;2022-12-18T08:56:02;9.30;1.00
2945;DHT22;1482;51.398;7.128;2022-12-18T08:58:28;9.90;1.00
2945;DHT22;1482;51.398;7.128;2022-12-18T09:00:54;10.50;1.00
2945;DHT22;1482;51.398;7.128;2022-12-18T09:03:19;10.90;1.00
2945;DHT22;1482;51.398;7.128;2022-12-18T09:05:47;10.80;1.00
2945;DHT22;1482;51.398;7.128;2022-12-18T09:08:13;9.70;1.00
2945;DHT22;1482;51.398;7.128;2022-12-18T09:10:46;9.50;1.00
2945;DHT22;1482;51.398;7.128;2022-12-18T09:13:12;9.70;1.00
2945;DHT22;1482;51.398;7.128;2022-12-18T09:15:42;9.50;1.00
2945;DHT22;1482;51.398;7.128;2022-12-18T09:18:08;9.30;1.00
2945;DHT22;1482;51.398;7.128;2022-12-18T09:20:36;8.50;1.00
2945;DHT22;1482;51.398;7.128;2022-12-18T09:23:02;8.30;1.00
2945;DHT22;1482;51.398;7.128;2022-12-18T09:25:29;8.10;1.00
2945;DHT22;1482;51.398;7.128;2022-12-18T09:28:14;8.30;1.00
2945;DHT22;1482;51.398;7.128;2022-12-18T09:30:42;7.80;1.00
2945;DHT22;1482;51.398;7.128;2022-12-18T09:33:08;7.50;1.00
2945;DHT22;1482;51.398;7.128;2022-12-18T09:35:36;7.70;1.00
2945;DHT22;1482;51.398;7.128;2022-12-18T09:38:05;7.30;1.00
2945;DHT22;1482;51.398;7.128;2022-12-18T09:40:41;8.00;1.00
2945;DHT22;1482;51.398;7.128;2022-12-18T09:43:23;7.80;1.00
2945;DHT22;1482;51.398;7.128;2022-12-18T09:45:53;8.20;1.00
2945;DHT22;1482;51.398;7.128;2022-12-18T09:48:24;7.20;1.00
2945;DHT22;1482;51.398;7.128;2022-12-18T09:50:51;7.00;1.00
2945;DHT22;1482;51.398;7.128;2022-12-18T09:53:26;6.40;1.00
2945;DHT22;1482;51.398;7.128;2022-12-18T09:55:53;6.40;1.00
2945;DHT22;1482;51.398;7.128;2022-12-18T09:58:33;6.00;1.00
2945;DHT22;1482;51.398;7.128;2022-12-18T10:01:00;5.80;1.00
2945;DHT22;1482;51.398;7.128;2022-12-18T10:03:26;5.40;1.00
2945;DHT22;1482;51.398;7.128;2022-12-18T10:06:13;5.20;1.00
2945;DHT22;1482;51.398;7.128;2022-12-18T10:11:34;4.70;1.00
2945;DHT22;1482;51.398;7.128;2022-12-18T10:19:39;4.20;1.00
2945;DHT22;1482;51.398;7.128;2022-12-18T10:25:02;4.00;1.00
2945;DHT22;1482;51.398;7.128;2022-12-18T10:27:30;4.20;1.00
2945;DHT22;1482;51.398;7.128;2022-12-18T10:29:56;4.30;1.00
2945;DHT22;1482;51.398;7.128;2022-12-18T10:32:24;4.30;1.00
2945;DHT22;1482;51.398;7.128;2022-12-18T10:34:53;4.10;1.00
2945;DHT22;1482;51.398;7.128;2022-12-18T10:37:22;4.20;1.00
2945;DHT22;1482;51.398;7.128;2022-12-18T10:40:10;4.20;1.00
2945;DHT22;1482;51.398;7.128;2022-12-18T10:42:37;4.10;1.00
2945;DHT22;1482;51.398;7.128;2022-12-18T10:45:14;4.30;1.00
2945;DHT22;1482;51.398;7.128;2022-12-18T10:47:48;4.50;1.00
2945;DHT22;1482;51.398;7.128;2022-12-18T10:50:24;4.60;1.00
2945;DHT22;1482;51.398;7.128;2022-12-18T10:52:55;4.70;1.00
2945;DHT22;1482;51.398;7.128;2022-12-18T10:55:22;4.70;1.00
2945;DHT22;1482;51.398;7.128;2022-12-18T10:57:49;4.80;1.00
2945;DHT22;1482;51.398;7.128;2022-12-18T11:00:28;4.60;1.00
2945;DHT22;1482;51.398;7.128;2022-12-18T11:02:55;4.70;1.00
2945;DHT22;1482;51.398;7.128;2022-12-18T11:07:51;4.70;1.00
2945;DHT22;1482;51.398;7.128;2022-12-18T11:10:21;4.60;1.00
2945;DHT22;1482;51.398;7.128;2022-12-18T11:12:47;4.60;1.00
2945;DHT22;1482;51.398;7.128;2022-12-18T11:15:39;4.60;1.00
2945;DHT22;1482;51.398;7.128;2022-12-18T11:18:26;4.50;1.00
2945;DHT22;1482;51.398;7.128;2022-12-18T11:20:54;4.50;1.00
2945;DHT22;1482;51.398;7.128;2022-12-18T11:23:22;4.60;1.00
2945;DHT22;1482;51.398;7.128;2022-12-18T11:25:55;4.70;1.00
2945;DHT22;1482;51.398;7.128;2022-12-18T11:28:37;4.70;1.00
2945;DHT22;1482;51.398;7.128;2022-12-18T11:33:35;4.40;1.00
2945;DHT22;1482;51.398;7.128;2022-12-18T11:36:03;4.50;1.00
2945;DHT22;1482;51.398;7.128;2022-12-18T11:38:36;4.60;1.00
2945;DHT22;1482;51.398;7.128;2022-12-18T11:44:01;4.60;1.00
2945;DHT22;1482;51.398;7.128;2022-12-18T11:46:37;4.40;1.00
2945;DHT22;1482;51.398;7.128;2022-12-18T11:49:11;4.40;1.00
2945;DHT22;1482;51.398;7.128;2022-12-18T11:54:18;4.50;1.00
2945;DHT22;1482;51.398;7.128;2022-12-18T11:56:55;4.50;1.00
2945;DHT22;1482;51.398;7.128;2022-12-18T11:59:42;4.50;1.00
2945;DHT22;1482;51.398;7.128;2022-12-18T12:08:01;4.50;1.00
2945;DHT22;1482;51.398;7.128;2022-12-18T12:13:43;4.50;1.00
2945;DHT22;1482;51.398;7.128;2022-12-18T12:16:26;4.60;1.00
2945;DHT22;1482;51.398;7.128;2022-12-18T12:19:02;4.60;1.00
2945;DHT22;1482;51.398;7.128;2022-12-18T12:27:20;4.50;1.00
2945;DHT22;1482;51.398;7.128;2022-12-18T12:30:00;4.50;1.00
2945;DHT22;1482;51.398;7.128;2022-12-18T12:38:08;4.70;1.00
2945;DHT22;1482;51.398;7.128;2022-12-18T12:40:39;4.60;1.00
2945;DHT22;1482;51.398;7.128;2022-12-18T12:43:41;4.40;1.00
2945;DHT22;1482;51.398;7.128;2022-12-18T12:46:12;4.30;1.00
2945;DHT22;1482;51.398;7.128;2022-12-18T12:48:49;4.40;1.00
2945;DHT22;1482;51.398;7.128;2022-12-18T12:51:22;4.50;1.00
2945;DHT22;1482;51.398;7.128;2022-12-18T12:53:49;4.50;1.00
2945;DHT22;1482;51.398;7.128;2022-12-18T12:56:18;4.60;1.00
2945;DHT22;1482;51.398;7.128;2022-12-18T13:07:45;4.50;1.00
2945;DHT22;1482;51.398;7.128;2022-12-18T13:12:55;4.40;1.00
2945;DHT22;1482;51.398;7.128;2022-12-18T13:23:47;4.00;1.00
2945;DHT22;1482;51.398;7.128;2022-12-18T13:25:47;4.00;1.00
2945;DHT22;1482;51.398;7.128;2022-12-18T13:28:15;4.00;1.00
2945;DHT22;1482;51.398;7.128;2022-12-18T13:30:41;4.00;1.00
2945;DHT22;1482;51.398;7.128;2022-12-18T13:36:10;4.00;1.00
2945;DHT22;1482;51.398;7.128;2022-12-18T13:38:38;4.10;1.00
2945;DHT22;1482;51.398;7.128;2022-12-18T13:41:24;4.10;1.00
2945;DHT22;1482;51.398;7.128;2022-12-18T13:44:56;3.90;1.00
2945;DHT22;1482;51.398;7.128;2022-12-18T13:46:57;3.70;1.00
2945;DHT22;1482;51.398;7.128;2022-12-18T13:49:43;3.80;1.00
2945;DHT22;1482;51.398;7.128;2022-12-18T13:52:18;3.60;1.00
2945;DHT22;1482;51.398;7.128;2022-12-18T13:54:59;3.60;1.00
2945;DHT22;1482;51.398;7.128;2022-12-18T13:57:34;3.50;1.00
2945;DHT22;1482;51.398;7.128;2022-12-18T14:02:48;3.50;1.00
2945;DHT22;1482;51.398;7.128;2022-12-18T14:05:29;3.30;1.00
2945;DHT22;1482;51.398;7.128;2022-12-18T14:08:03;3.40;1.00
2945;DHT22;1482;51.398;7.128;2022-12-18T14:10:30;3.20;1.00
2945;DHT22;1482;51.398;7.128;2022-12-18T14:12:56;3.10;1.00
2945;DHT22;1482;51.398;7.128;2022-12-18T14:17:54;3.00;1.00
2945;DHT22;1482;51.398;7.128;2022-12-18T14:20:20;3.10;1.00
2945;DHT22;1482;51.398;7.128;2022-12-18T14:22:47;3.10;1.00
2945;DHT22;1482;51.398;7.128;2022-12-18T14:27:45;2.90;1.00
2945;DHT22;1482;51.398;7.128;2022-12-18T14:30:23;2.90;1.00
2945;DHT22;1482;51.398;7.128;2022-12-18T14:33:00;3.00;1.00
2945;DHT22;1482;51.398;7.128;2022-12-18T14:35:26;2.80;1.00
2945;DHT22;1482;51.398;7.128;2022-12-18T14:37:51;2.70;1.00
2945;DHT22;1482;51.398;7.128;2022-12-18T14:40:17;2.80;1.00
2945;DHT22;1482;51.398;7.128;2022-12-18T14:42:42;2.70;1.00
2945;DHT22;1482;51.398;7.128;2022-12-18T14:45:33;2.70;1.00
2945;DHT22;1482;51.398;7.128;2022-12-18T14:47:59;2.60;1.00
2945;DHT22;1482;51.398;7.128;2022-12-18T14:50:25;2.50;1.00
2945;DHT22;1482;51.398;7.128;2022-12-18T14:52:51;2.50;1.00
2945;DHT22;1482;51.398;7.128;2022-12-18T14:55:18;2.50;1.00
2945;DHT22;1482;51.398;7.128;2022-12-18T14:57:44;2.50;1.00
2945;DHT22;1482;51.398;7.128;2022-12-18T15:00:19;2.40;1.00
2945;DHT22;1482;51.398;7.128;2022-12-18T15:02:48;2.30;1.00
2945;DHT22;1482;51.398;7.128;2022-12-18T15:05:28;2.30;1.00
2945;DHT22;1482;51.398;7.128;2022-12-18T15:07:56;2.10;1.00
2945;DHT22;1482;51.398;7.128;2022-12-18T15:10:24;2.10;1.00
2945;DHT22;1482;51.398;7.128;2022-12-18T15:18:04;2.20;1.00
2945;DHT22;1482;51.398;7.128;2022-12-18T15:20:43;2.20;1.00
2945;DHT22;1482;51.398;7.128;2022-12-18T15:23:21;2.20;1.00
2945;DHT22;1482;51.398;7.128;2022-12-18T15:25:58;2.00;1.00
2945;DHT22;1482;51.398;7.128;2022-12-18T15:28:37;1.90;1.00
2945;DHT22;1482;51.398;7.128;2022-12-18T15:33:43;2.00;1.00
2945;DHT22;1482;51.398;7.128;2022-12-18T15:36:13;1.90;1.00
2945;DHT22;1482;51.398;7.128;2022-12-18T15:38:39;1.90;1.00
2945;DHT22;1482;51.398;7.128;2022-12-18T15:41:05;1.90;1.00
2945;DHT22;1482;51.398;7.128;2022-12-18T15:43:32;2.00;1.00
2945;DHT22;1482;51.398;7.128;2022-12-18T15:46:03;2.00;1.00
2945;DHT22;1482;51.398;7.128;2022-12-18T15:48:29;1.90;1.00
2945;DHT22;1482;51.398;7.128;2022-12-18T15:50:56;2.00;1.00
2945;DHT22;1482;51.398;7.128;2022-12-18T15:53:24;2.00;1.00
2945;DHT22;1482;51.398;7.128;2022-12-18T15:55:50;1.80;1.00
2945;DHT22;1482;51.398;7.128;2022-12-18T15:58:34;1.80;1.00
2945;DHT22;1482;51.398;7.128;2022-12-18T16:01:00;1.90;1.00
2945;DHT22;1482;51.398;7.128;2022-12-18T16:03:26;1.90;1.00
2945;DHT22;1482;51.398;7.128;2022-12-18T16:05:51;1.90;1.00
2945;DHT22;1482;51.398;7.128;2022-12-18T16:08:17;1.90;1.00
2945;DHT22;1482;51.398;7.128;2022-12-18T16:10:43;1.90;1.00
2945;DHT22;1482;51.398;7.128;2022-12-18T16:13:13;1.90;1.00
2945;DHT22;1482;51.398;7.128;2022-12-18T16:15:40;1.90;1.00
2945;DHT22;1482;51.398;7.128;2022-12-18T16:18:05;1.90;1.00
2945;DHT22;1482;51.398;7.128;2022-12-18T16:20:31;1.90;1.00
2945;DHT22;1482;51.398;7.128;2022-12-18T16:22:57;1.90;1.00
2945;DHT22;1482;51.398;7.128;2022-12-18T16:25:27;2.00;1.00
2945;DHT22;1482;51.398;7.128;2022-12-18T16:27:54;1.90;1.00
2945;DHT22;1482;51.398;7.128;2022-12-18T16:30:28;2.00;1.00
2945;DHT22;1482;51.398;7.128;2022-12-18T16:32:56;2.10;1.00
2945;DHT22;1482;51.398;7.128;2022-12-18T16:35:23;2.10;1.00
2945;DHT22;1482;51.398;7.128;2022-12-18T16:37:49;2.20;1.00
2945;DHT22;1482;51.398;7.128;2022-12-18T16:40:16;2.20;1.00
2945;DHT22;1482;51.398;7.128;2022-12-18T16:42:43;2.10;1.00
2945;DHT22;1482;51.398;7.128;2022-12-18T16:45:15;2.10;1.00
2945;DHT22;1482;51.398;7.128;2022-12-18T16:47:41;2.10;1.00
2945;DHT22;1482;51.398;7.128;2022-12-18T16:50:08;2.10;1.00
2945;DHT22;1482;51.398;7.128;2022-12-18T16:52:34;2.10;1.00
2945;DHT22;1482;51.398;7.128;2022-12-18T16:55:00;2.10;1.00
2945;DHT22;1482;51.398;7.128;2022-12-18T16:57:26;2.00;1.00
2945;DHT22;1482;51.398;7.128;2022-12-18T16:59:52;2.00;1.00
2945;DHT22;1482;51.398;7.128;2022-12-18T17:02:20;2.00;1.00
2945;DHT22;1482;51.398;7.128;2022-12-18T17:04:46;1.90;1.00
2945;DHT22;1482;51.398;7.128;2022-12-18T17:07:12;2.00;1.00
2945;DHT22;1482;51.398;7.128;2022-12-18T17:09:38;1.80;1.00
2945;DHT22;1482;51.398;7.128;2022-12-18T17:12:04;1.80;1.00
2945;DHT22;1482;51.398;7.128;2022-12-18T17:14:31;1.80;1.00
2945;DHT22;1482;51.398;7.128;2022-12-18T17:16:57;1.90;1.00
2945;DHT22;1482;51.398;7.128;2022-12-18T17:19:25;1.80;1.00
2945;DHT22;1482;51.398;7.128;2022-12-18T17:21:51;1.80;1.00
2945;DHT22;1482;51.398;7.128;2022-12-18T17:24:17;1.70;1.00
2945;DHT22;1482;51.398;7.128;2022-12-18T17:26:42;1.60;1.00
2945;DHT22;1482;51.398;7.128;2022-12-18T17:29:12;1.70;1.00
2945;DHT22;1482;51.398;7.128;2022-12-18T17:31:38;1.70;1.00
2945;DHT22;1482;51.398;7.128;2022-12-18T17:34:04;1.70;1.00
2945;DHT22;1482;51.398;7.128;2022-12-18T17:36:30;1.60;1.00
2945;DHT22;1482;51.398;7.128;2022-12-18T17:39:00;1.70;1.00
2945;DHT22;1482;51.398;7.128;2022-12-18T17:41:27;1.80;1.00
2945;DHT22;1482;51.398;7.128;2022-12-18T17:43:55;1.80;1.00
2945;DHT22;1482;51.398;7.128;2022-12-18T17:46:22;1.80;1.00
2945;DHT22;1482;51.398;7.128;2022-12-18T17:48:48;1.60;1.00
2945;DHT22;1482;51.398;7.128;2022-12-18T17:51:14;1.70;1.00
2945;DHT22;1482;51.398;7.128;2022-12-18T17:53:40;1.50;1.00
2945;DHT22;1482;51.398;7.128;2022-12-18T17:56:06;1.40;1.00
2945;DHT22;1482;51.398;7.128;2022-12-18T17:58:34;1.40;1.00
2945;DHT22;1482;51.398;7.128;2022-12-18T18:01:00;1.40;1.00
2945;DHT22;1482;51.398;7.128;2022-12-18T18:03:26;1.30;1.00
2945;DHT22;1482;51.398;7.128;2022-12-18T18:05:55;1.30;1.00
2945;DHT22;1482;51.398;7.128;2022-12-18T18:08:22;1.30;1.00
2945;DHT22;1482;51.398;7.128;2022-12-18T18:10:47;1.20;1.00
2945;DHT22;1482;51.398;7.128;2022-12-18T18:13:22;1.20;1.00
2945;DHT22;1482;51.398;7.128;2022-12-18T18:16:08;1.20;1.00
2945;DHT22;1482;51.398;7.128;2022-12-18T18:18:34;1.10;1.00
2945;DHT22;1482;51.398;7.128;2022-12-18T18:21:07;1.10;1.00
2945;DHT22;1482;51.398;7.128;2022-12-18T18:23:33;1.10;1.00
2945;DHT22;1482;51.398;7.128;2022-12-18T18:26:06;1.10;1.00
2945;DHT22;1482;51.398;7.128;2022-12-18T18:28:33;1.20;1.00
2945;DHT22;1482;51.398;7.128;2022-12-18T18:31:03;1.20;1.00